TimeCST,TemperatureF,Dew PointF,Humidity,Sea Level PressureIn,VisibilityMPH,Wind Direction,Wind SpeedMPH,Gust SpeedMPH,PrecipitationIn,Events,Conditions,WindDirDegrees,DateUTC
12:15 AM,8.2,-2.9,60,30.49,10.0,North,11.5,-,N/A,,Clear,350,2014-01-28 06:15:00
12:35 AM,8.1,-4.7,56,30.50,10.0,NNW,11.5,-,N/A,,Clear,340,2014-01-28 06:35:00
12:55 AM,8.1,-4.0,58,30.50,10.0,North,10.4,-,N/A,,Clear,350,2014-01-28 06:55:00
1:15 AM,7.7,-2.7,62,30.50,10.0,North,8.1,-,N/A,,Clear,360,2014-01-28 07:15:00
1:35 AM,7.7,-2.9,62,30.50,10.0,NNW,8.1,-,N/A,,Clear,340,2014-01-28 07:35:00
1:55 AM,7.5,-3.1,62,30.51,10.0,North,10.4,-,N/A,,Clear,350,2014-01-28 07:55:00
2:20 AM,7.5,-3.5,61,30.51,10.0,North,9.2,-,N/A,,Clear,350,2014-01-28 08:20:00
2:35 AM,7.5,-3.6,60,30.51,10.0,North,9.2,-,N/A,,Clear,360,2014-01-28 08:35:00
2:55 AM,6.8,-4.4,60,30.51,10.0,North,9.2,-,N/A,,Clear,350,2014-01-28 08:55:00
3:15 AM,6.8,-4.9,59,30.51,10.0,North,8.1,-,N/A,,Clear,350,2014-01-28 09:15:00
3:35 AM,6.8,-5.1,58,30.50,10.0,North,8.1,-,N/A,,Clear,360,2014-01-28 09:35:00
3:55 AM,6.6,-5.4,58,30.49,10.0,North,10.4,-,N/A,,Clear,350,2014-01-28 09:55:00
4:15 AM,5.9,-5.6,59,30.49,10.0,North,8.1,-,N/A,,Clear,350,2014-01-28 10:15:00
4:35 AM,5.7,-5.4,60,30.50,10.0,North,8.1,-,N/A,,Clear,360,2014-01-28 10:35:00
4:55 AM,5.7,-5.1,61,30.50,10.0,North,6.9,-,N/A,,Clear,360,2014-01-28 10:55:00
5:15 AM,5.7,-4.9,62,30.50,10.0,North,6.9,-,N/A,,Clear,360,2014-01-28 11:15:00
5:35 AM,5.9,-4.5,62,30.50,10.0,North,8.1,-,N/A,,Clear,350,2014-01-28 11:35:00
5:55 AM,5.7,-4.9,62,30.51,10.0,North,8.1,-,N/A,,Clear,350,2014-01-28 11:55:00
6:15 AM,5.5,-5.1,62,30.51,10.0,North,8.1,-,N/A,,Clear,350,2014-01-28 12:15:00
6:35 AM,5.5,-4.9,62,30.52,10.0,North,6.9,-,N/A,,Clear,350,2014-01-28 12:35:00
6:55 AM,5.5,-4.9,62,30.52,10.0,North,5.8,-,N/A,,Clear,350,2014-01-28 12:55:00
7:15 AM,5.5,-5.1,62,30.51,10.0,North,6.9,-,N/A,,Clear,360,2014-01-28 13:15:00
7:35 AM,5.7,-4.9,62,30.51,10.0,NNE,6.9,-,N/A,,Clear,20,2014-01-28 13:35:00
7:55 AM,5.9,-4.7,62,30.51,10.0,North,6.9,-,N/A,,Clear,10,2014-01-28 13:55:00
8:15 AM,6.1,-4.0,63,30.51,10.0,North,6.9,-,N/A,,Clear,360,2014-01-28 14:15:00
8:35 AM,6.3,-4.2,62,30.52,10.0,North,5.8,-,N/A,,Clear,10,2014-01-28 14:35:00
8:55 AM,6.6,-4.5,60,30.52,10.0,North,5.8,-,N/A,,Clear,10,2014-01-28 14:55:00
9:15 AM,7.7,-4.5,57,30.53,10.0,North,3.5,-,N/A,,Clear,350,2014-01-28 15:15:00
9:35 AM,8.6,-4.9,54,30.54,10.0,North,3.5,-,N/A,,Clear,360,2014-01-28 15:35:00
9:55 AM,9.5,-4.0,54,30.53,10.0,NNW,4.6,-,N/A,,Clear,340,2014-01-28 15:55:00
10:15 AM,10.8,-3.8,52,30.53,10.0,NNW,4.6,-,N/A,,Clear,330,2014-01-28 16:15:00
10:35 AM,11.1,-5.1,48,30.53,10.0,North,3.5,-,N/A,,Clear,360,2014-01-28 16:35:00
10:55 AM,12.0,-4.9,47,30.53,10.0,North,3.5,-,N/A,,Clear,350,2014-01-28 16:55:00
11:15 AM,12.4,-6.0,44,30.52,10.0,WNW,5.8,-,N/A,,Clear,290,2014-01-28 17:15:00
11:35 AM,13.3,-5.1,44,30.50,10.0,NNE,3.5,-,N/A,,Clear,30,2014-01-28 17:35:00
11:55 AM,14.4,-6.0,40,30.49,10.0,North,5.8,-,N/A,,Clear,350,2014-01-28 17:55:00
12:15 PM,14.9,-6.5,38,30.47,10.0,NW,5.8,-,N/A,,Clear,320,2014-01-28 18:15:00
12:35 PM,15.6,-6.2,38,30.46,10.0,NNW,8.1,-,N/A,,Clear,330,2014-01-28 18:35:00
1:00 PM,15.3,-7.2,36,30.45,10.0,WNW,6.9,-,N/A,,Clear,300,2014-01-28 19:00:00
1:15 PM,16.2,-6.3,37,30.44,10.0,NW,4.6,-,N/A,,Clear,320,2014-01-28 19:15:00
1:35 PM,16.3,-4.9,39,30.43,10.0,NW,5.8,-,N/A,,Clear,310,2014-01-28 19:35:00
1:55 PM,17.1,-4.7,38,30.41,10.0,NNW,5.8,-,N/A,,Clear,330,2014-01-28 19:55:00
2:15 PM,17.2,-5.3,37,30.41,10.0,Calm,Calm,-,N/A,,Clear,0,2014-01-28 20:15:00
2:35 PM,18.1,-5.3,35,30.40,10.0,NW,3.5,-,N/A,,Clear,310,2014-01-28 20:35:00
2:55 PM,18.1,-5.6,35,30.40,10.0,NW,3.5,-,N/A,,Clear,320,2014-01-28 20:55:00
3:15 PM,18.5,-5.1,35,30.40,10.0,Calm,Calm,-,N/A,,Clear,0,2014-01-28 21:15:00
3:35 PM,18.5,-5.1,35,30.40,10.0,Calm,Calm,-,N/A,,Clear,0,2014-01-28 21:35:00
3:55 PM,18.5,-5.4,35,30.40,10.0,West,5.8,-,N/A,,Clear,260,2014-01-28 21:55:00
4:15 PM,18.5,-5.4,35,30.40,10.0,WNW,8.1,-,N/A,,Clear,290,2014-01-28 22:15:00
4:35 PM,17.6,-5.6,36,30.40,10.0,West,6.9,-,N/A,,Clear,280,2014-01-28 22:35:00
4:55 PM,17.1,-4.5,38,30.40,10.0,WNW,5.8,-,N/A,,Clear,300,2014-01-28 22:55:00
5:15 PM,15.6,-3.3,43,30.40,10.0,NW,4.6,-,N/A,,Clear,310,2014-01-28 23:15:00
5:35 PM,15.3,-4.0,42,30.39,10.0,Calm,Calm,-,N/A,,Clear,0,2014-01-28 23:35:00
5:55 PM,14.7,-1.5,49,30.39,10.0,Calm,Calm,-,N/A,,Clear,0,2014-01-28 23:55:00
6:15 PM,14.4,-0.4,52,30.40,10.0,Calm,Calm,-,N/A,,Clear,0,2014-01-29 00:15:00
6:40 PM,14.5,-2.6,47,30.40,10.0,Calm,Calm,-,N/A,,Clear,0,2014-01-29 00:40:00
6:55 PM,12.6,1.4,61,30.40,10.0,Calm,Calm,-,N/A,,Clear,0,2014-01-29 00:55:00
7:15 PM,11.7,-0.4,58,30.40,10.0,West,3.5,-,N/A,,Clear,270,2014-01-29 01:15:00
7:35 PM,10.2,1.9,69,30.41,10.0,WNW,5.8,-,N/A,,Clear,300,2014-01-29 01:35:00
7:55 PM,10.2,0.9,66,30.41,10.0,WNW,5.8,-,N/A,,Clear,300,2014-01-29 01:55:00
8:15 PM,10.9,-0.4,60,30.41,10.0,WNW,5.8,-,N/A,,Clear,290,2014-01-29 02:15:00
8:35 PM,11.5,-1.3,57,30.41,10.0,WNW,4.6,-,N/A,,Clear,290,2014-01-29 02:35:00
8:55 PM,11.1,-0.4,60,30.41,10.0,NW,3.5,-,N/A,,Clear,310,2014-01-29 02:55:00
9:15 PM,11.3,-0.4,59,30.41,10.0,Calm,Calm,-,N/A,,Clear,0,2014-01-29 03:15:00
9:35 PM,9.5,2.1,72,30.41,10.0,Calm,Calm,-,N/A,,Clear,0,2014-01-29 03:35:00
9:55 PM,9.5,3.6,77,30.41,10.0,Calm,Calm,-,N/A,,Clear,0,2014-01-29 03:55:00
10:15 PM,8.2,3.9,83,30.41,10.0,WSW,3.5,-,N/A,,Clear,240,2014-01-29 04:15:00
10:35 PM,7.5,2.8,81,30.41,10.0,West,3.5,-,N/A,,Clear,260,2014-01-29 04:35:00
10:55 PM,7.2,3.2,84,30.41,10.0,WSW,3.5,-,N/A,,Clear,240,2014-01-29 04:55:00
11:15 PM,5.9,2.1,84,30.41,10.0,SSW,4.6,-,N/A,,Clear,210,2014-01-29 05:15:00
11:35 PM,7.2,3.4,85,30.41,10.0,Calm,Calm,-,N/A,,Clear,0,2014-01-29 05:35:00
11:55 PM,7.2,3.4,85,30.41,10.0,Calm,Calm,-,N/A,,Clear,0,2014-01-29 05:55:00